Time;durP1;ratioP1;P1;durP2;ratioP2;P2;SDS_P1;SDS_P2;PMS_P1;PMS_P2;Temp;Humidity;BMP_temperature;BMP_pressure;BME280_temperature;BME280_humidity;BME280_pressure;Samples;Min_cycle;Max_cycle;Signal;HPM_P1;HPM_P2
2022/01/25 00:24:48;;;;;;;227.32;75.28;;;;;;;10.32;100.00;98839.50;4777314;29;20047;-70
2022/01/25 00:33:58;;;;;;;216.43;73.43;;;;;;;10.47;100.00;98843.38;4780708;30;20079;-70
2022/01/25 00:36:40;;;;;;;217.02;75.38;;;;;;;10.43;100.00;98841.78;4764184;29;20765;-70
2022/01/25 00:39:29;;;;;;;221.18;72.53;;;;;;;10.38;100.00;98842.81;4778239;29;20120;-70
2022/01/25 00:42:11;;;;;;;226.43;74.93;;;;;;;10.37;100.00;98849.69;4779905;29;20112;-70
2022/01/25 00:44:59;;;;;;;216.75;76.57;;;;;;;10.48;100.00;98844.22;4780823;29;20082;-71
2022/01/25 00:47:50;;;;;;;224.05;74.00;;;;;;;10.39;100.00;98844.47;4783495;29;20051;-70
2022/01/25 00:50:45;;;;;;;240.25;75.32;;;;;;;10.37;100.00;98841.97;4774685;29;20051;-70
2022/01/25 00:56:40;;;;;;;219.60;75.85;;;;;;;10.42;100.00;98840.09;4775263;30;20066;-70
2022/01/25 00:59:24;;;;;;;209.75;72.97;;;;;;;10.41;100.00;98843.56;4778860;29;20051;-70
2022/01/25 01:02:15;;;;;;;223.73;74.45;;;;;;;10.40;100.00;98841.84;4775623;29;20059;-69
2022/01/25 01:04:57;;;;;;;221.93;77.60;;;;;;;10.35;100.00;98834.25;4762097;29;20081;-68
2022/01/25 01:07:45;;;;;;;213.95;73.85;;;;;;;10.40;100.00;98841.00;4780606;29;20051;-68
2022/01/25 01:10:28;;;;;;;230.30;77.70;;;;;;;10.55;100.00;98836.28;4782805;29;20489;-70
2022/01/25 01:31:54;;;;;;;269.25;83.80;;;;;;;10.52;100.00;98845.84;4779587;29;20858;-70
2022/01/25 01:35:21;;;;;;;;;;;;;;;10.46;100.00;98846.84;4783275;29;20600;-70
2022/01/25 01:43:57;;;;;;;256.60;84.25;;;;;;;10.43;100.00;98852.09;4779533;29;20108;-71
2022/01/25 01:46:54;;;;;;;272.00;85.40;;;;;;;10.43;100.00;98851.25;4780118;29;20071;-71
2022/01/25 01:49:49;;;;;;;;;;;;;;;10.37;100.00;98851.41;4779130;29;20051;-70
2022/01/25 01:52:24;;;;;;;271.83;82.13;;;;;;;10.38;100.00;98853.09;4778272;29;20012;-70
2022/01/25 01:55:12;;;;;;;282.15;85.72;;;;;;;10.32;100.00;98854.94;4780973;29;20075;-70
2022/01/25 01:57:55;;;;;;;263.55;84.55;;;;;;;10.34;100.00;98854.91;4745551;30;20068;-70
2022/01/25 02:00:50;;;;;;;272.75;85.50;;;;;;;10.36;100.00;98860.88;4788261;29;20043;-69
2022/01/25 02:03:32;;;;;;;271.88;85.68;;;;;;;10.34;100.00;98866.03;4795995;29;20046;-69
2022/01/25 02:06:22;;;;;;;292.15;87.70;;;;;;;10.27;100.00;98867.09;4796652;29;20059;-69
2022/01/25 02:09:13;;;;;;;283.33;84.15;;;;;;;10.25;100.00;98866.28;4801344;29;20571;-69
2022/01/25 02:11:55;;;;;;;268.10;85.85;;;;;;;10.25;100.00;98868.84;4786789;29;20120;-68
2022/01/25 02:14:44;;;;;;;252.13;84.63;;;;;;;10.21;100.00;98867.25;4764690;30;20051;-69
2022/01/25 02:23:22;;;;;;;235.23;78.88;;;;;;;10.15;100.00;98872.50;4765018;30;20074;-69
2022/01/25 02:26:13;;;;;;;232.98;79.10;;;;;;;10.11;100.00;98877.78;4780975;30;20422;-66
2022/01/25 02:28:55;;;;;;;260.55;81.78;;;;;;;10.15;100.00;98879.38;4795843;29;20067;-68
2022/01/25 02:31:43;;;;;;;243.48;81.07;;;;;;;10.09;100.00;98880.38;4781425;30;20062;-68
2022/01/25 02:34:25;;;;;;;238.13;76.72;;;;;;;10.06;100.00;98883.03;4788749;29;20470;-70
2022/01/25 02:37:22;;;;;;;246.25;79.75;;;;;;;10.07;100.00;98884.72;4798715;29;20054;-70
2022/01/25 02:39:58;;;;;;;265.42;80.97;;;;;;;10.08;100.00;98881.28;4799653;29;20055;-70
2022/01/25 02:42:47;;;;;;;233.40;77.65;;;;;;;10.10;100.00;98891.53;4785629;29;20054;-71
2022/01/25 02:45:34;;;;;;;274.75;78.72;;;;;;;10.12;100.00;98892.34;4766316;30;20143;-70
2022/01/25 02:48:30;;;;;;;241.68;77.50;;;;;;;10.08;100.00;98893.28;4783313;29;20152;-70
2022/01/25 02:51:20;;;;;;;235.30;77.82;;;;;;;10.13;100.00;98899.19;4766459;30;20143;-70
2022/01/25 02:54:10;;;;;;;250.98;79.40;;;;;;;10.06;100.00;98906.19;4775710;29;20059;-69
2022/01/25 02:56:52;;;;;;;244.43;78.82;;;;;;;10.28;100.00;98915.13;4787398;29;20051;-70
2022/01/25 02:59:41;;;;;;;258.08;77.22;;;;;;;10.22;100.00;98917.84;4780551;29;20150;-71
2022/01/25 03:02:23;;;;;;;252.52;74.78;;;;;;;10.09;100.00;98913.00;4759395;30;20350;-71
2022/01/25 03:05:13;;;;;;;264.80;75.93;;;;;;;10.21;100.00;98911.03;4747797;29;20054;-71
2022/01/25 03:07:56;;;;;;;266.17;78.60;;;;;;;10.13;100.00;98920.63;4778890;30;20496;-70
2022/01/25 03:10:46;;;;;;;239.13;77.18;;;;;;;10.17;100.00;98924.84;4770669;29;20700;-70
2022/01/25 03:13:34;;;;;;;249.55;76.68;;;;;;;10.22;100.00;98933.28;4777148;30;20059;-70
2022/01/25 03:22:44;;;;;;;245.90;75.45;;;;;;;10.29;100.00;98942.56;4797136;29;20421;-71
2022/01/25 03:25:26;;;;;;;227.50;75.13;;;;;;;10.32;100.00;98937.34;4785655;29;20055;-69
2022/01/25 03:28:14;;;;;;;224.70;73.65;;;;;;;10.35;100.00;98946.72;4779779;29;20430;-71
2022/01/25 03:30:55;;;;;;;246.75;79.65;;;;;;;10.33;100.00;98941.59;4788597;29;20046;-68
2022/01/25 03:33:45;;;;;;;238.07;74.70;;;;;;;10.47;100.00;98950.69;4778801;29;20046;-68
2022/01/25 03:36:27;;;;;;;228.95;74.45;;;;;;;10.51;100.00;98960.91;4749457;29;20115;-68
2022/01/25 03:39:16;;;;;;;257.85;76.50;;;;;;;10.46;100.00;98959.31;4756636;29;20138;-69
2022/01/25 03:41:59;;;;;;;239.60;76.72;;;;;;;10.56;100.00;98965.94;4779566;29;20061;-68
2022/01/25 03:44:49;;;;;;;228.13;75.82;;;;;;;10.47;100.00;98972.16;4792280;29;20057;-70
2022/01/25 03:47:45;;;;;;;228.32;71.60;;;;;;;10.54;100.00;98972.84;4779892;29;20138;-69
2022/01/25 03:50:39;;;;;;;216.07;69.82;;;;;;;10.50;100.00;98976.38;4777874;29;20050;-68
2022/01/25 03:53:16;;;;;;;232.23;73.28;;;;;;;10.51;100.00;98972.94;4797754;29;20055;-71
2022/01/25 03:56:09;;;;;;;241.75;71.72;;;;;;;10.47;100.00;98982.47;4783652;29;20055;-71
2022/01/25 03:58:51;;;;;;;231.70;70.05;;;;;;;10.45;100.00;98979.09;4788152;29;20333;-69
2022/01/25 04:01:42;;;;;;;228.07;73.25;;;;;;;10.60;100.00;98983.00;4764788;30;20189;-71
2022/01/25 04:04:26;;;;;;;202.88;69.95;;;;;;;10.51;100.00;98983.25;4766650;29;20059;-69
2022/01/25 04:07:24;;;;;;;207.68;72.38;;;;;;;10.68;100.00;98988.81;4776336;29;20063;-69
2022/01/25 04:10:06;;;;;;;199.18;69.15;;;;;;;10.62;100.00;98991.53;4777859;29;20066;-69
2022/01/25 04:12:54;;;;;;;207.40;71.68;;;;;;;10.82;100.00;98991.88;4781170;29;20047;-70
2022/01/25 04:15:44;;;;;;;203.13;70.32;;;;;;;10.97;100.00;98994.06;4783552;29;20083;-70
2022/01/25 04:18:46;;;;;;;210.98;76.20;;;;;;;10.91;100.00;98994.22;4776514;30;20062;-70
2022/01/25 04:27:25;;;;;;;193.05;69.25;;;;;;;10.90;100.00;99001.97;4776980;29;20489;-70
2022/01/25 04:30:16;;;;;;;186.23;67.15;;;;;;;10.93;100.00;99007.91;4776882;29;20551;-69
2022/01/25 04:33:04;;;;;;;197.10;64.43;;;;;;;11.00;100.00;99014.59;4778911;29;20174;-69
2022/01/25 05:00:20;;;;;;;172.55;64.13;;;;;;;12.07;100.00;99017.56;4788920;29;20068;-68
2022/01/25 05:03:06;;;;;;;178.13;66.43;;;;;;;12.26;100.00;99012.69;4779893;29;20055;-69
2022/01/25 05:06:10;;;;;;;167.23;65.13;;;;;;;12.55;100.00;99019.50;4780649;29;20055;-68
2022/01/25 05:08:56;;;;;;;182.55;65.78;;;;;;;12.24;100.00;99014.47;4774229;30;20059;-69
2022/01/25 05:11:47;;;;;;;176.38;64.70;;;;;;;12.16;100.00;99019.88;4779457;29;20055;-69
2022/01/25 05:14:35;;;;;;;187.10;65.53;;;;;;;12.21;100.00;99017.16;4780923;29;20098;-69
2022/01/25 05:17:43;;;;;;;192.27;70.50;;;;;;;12.45;100.00;99013.78;4780693;29;20079;-69
2022/01/25 05:23:37;;;;;;;187.20;66.68;;;;;;;12.33;100.00;99006.44;4767330;30;20059;-69
2022/01/25 05:26:12;;;;;;;190.63;70.78;;;;;;;12.50;100.00;99008.47;4770374;30;20392;-69
2022/01/25 05:29:07;;;;;;;188.38;67.88;;;;;;;12.62;100.00;99011.47;4780809;29;20123;-69
2022/01/25 05:31:42;;;;;;;179.60;66.78;;;;;;;12.67;100.00;99007.91;4761308;30;20043;-68
2022/01/25 05:34:38;;;;;;;178.27;66.47;;;;;;;12.64;100.00;99009.69;4776638;29;20047;-69
2022/01/25 05:37:14;;;;;;;182.70;66.55;;;;;;;12.87;100.00;99008.09;4776260;29;20062;-68
2022/01/25 05:40:15;;;;;;;203.73;70.55;;;;;;;12.74;100.00;99005.06;4772988;30;20058;-69
2022/01/25 05:43:57;;;;;;;193.75;68.05;;;;;;;12.63;100.00;98996.81;4777667;30;20829;-68
2022/01/25 05:46:13;;;;;;;187.25;68.18;;;;;;;12.91;100.00;98999.34;4776673;30;20473;-68
2022/01/25 05:48:55;;;;;;;173.75;68.38;;;;;;;13.18;100.00;98990.63;4779230;29;20071;-69
2022/01/25 05:51:44;;;;;;;178.68;69.75;;;;;;;13.52;100.00;98997.19;4776736;29;20132;-68
2022/01/25 05:54:32;;;;;;;194.05;71.60;;;;;;;13.51;100.00;98993.75;4766037;30;20055;-68
2022/01/25 05:57:13;;;;;;;191.25;71.15;;;;;;;13.75;100.00;98987.66;4779709;29;20429;-68
2022/01/25 06:00:02;;;;;;;182.85;69.93;;;;;;;13.90;100.00;98985.38;4774176;30;20603;-69
2022/01/25 06:02:54;;;;;;;195.25;70.20;;;;;;;13.85;100.00;98979.53;4759014;30;20047;-69
2022/01/25 06:05:36;;;;;;;188.13;69.80;;;;;;;13.91;100.00;98981.88;4771679;30;20063;-68
2022/01/25 06:08:25;;;;;;;170.68;70.22;;;;;;;13.73;100.00;98973.06;4774023;29;20569;-69
2022/01/25 06:11:09;;;;;;;176.45;69.75;;;;;;;14.23;100.00;98972.84;4769958;29;20132;-68
2022/01/25 06:13:58;;;;;;;169.77;68.03;;;;;;;14.31;100.00;98970.78;4774319;29;20828;-68
2022/01/25 06:16:40;;;;;;;178.02;67.25;;;;;;;14.18;100.00;98963.53;4779820;29;20048;-68
2022/01/25 06:19:29;;;;;;;172.13;70.15;;;;;;;14.55;100.00;98962.03;4761320;30;20097;-68
2022/01/25 06:22:15;;;;;;;178.77;67.10;;;;;;;14.89;100.00;98954.53;4775212;29;20057;-68
2022/01/25 06:25:04;;;;;;;167.60;67.90;;;;;;;14.97;100.00;98955.94;4763962;30;20059;-69
2022/01/25 06:27:43;;;;;;;171.75;65.65;;;;;;;14.65;100.00;98952.97;4776978;29;20480;-69
2022/01/25 06:30:24;;;;;;;158.50;66.78;;;;;;;15.03;100.00;98951.34;4770072;29;20684;-69
2022/01/25 06:33:12;;;;;;;149.82;64.07;;;;;;;15.46;100.00;98942.47;4781388;29;20109;-69
2022/01/25 06:36:01;;;;;;;152.35;64.97;;;;;;;15.07;100.00;98936.47;4780287;29;20130;-69
2022/01/25 06:38:43;;;;;;;160.95;61.53;;;;;;;15.31;100.00;98930.19;4776906;29;20060;-69
2022/01/25 06:41:33;;;;;;;155.20;60.92;;;;;;;15.45;100.00;98933.00;4778436;29;20392;-69
2022/01/25 06:44:15;;;;;;;153.68;59.08;;;;;;;15.75;100.00;98929.94;4776721;29;20055;-70
2022/01/25 06:47:04;;;;;;;161.20;63.10;;;;;;;15.62;100.00;98922.72;4783640;29;20734;-69
2022/01/25 06:49:45;;;;;;;145.52;61.15;;;;;;;15.40;100.00;98919.41;4774283;29;20060;-69
2022/01/25 06:52:37;;;;;;;144.07;58.63;;;;;;;15.39;100.00;98915.13;4775923;29;20124;-69
2022/01/25 06:55:19;;;;;;;138.77;56.00;;;;;;;15.75;100.00;98907.38;4771755;29;20065;-69
2022/01/25 06:58:08;;;;;;;135.90;54.40;;;;;;;16.06;100.00;98902.41;4771698;30;20064;-69
2022/01/25 07:00:50;;;;;;;111.80;48.85;;;;;;;15.98;100.00;98893.28;4778129;29;20063;-69
2022/01/25 07:03:39;;;;;;;128.70;51.58;;;;;;;16.02;100.00;98897.44;4774977;29;20115;-69
2022/01/25 07:06:21;;;;;;;138.93;56.17;;;;;;;16.15;100.00;98887.28;4776515;29;20047;-66
2022/01/25 07:09:09;;;;;;;137.18;55.13;;;;;;;15.54;100.00;98885.88;4771902;29;20135;-66
2022/01/25 07:12:00;;;;;;;141.63;53.55;;;;;;;15.66;100.00;98880.09;4777152;29;20596;-67
2022/01/25 07:14:50;;;;;;;131.68;54.70;;;;;;;15.98;100.00;98875.94;4781751;29;20139;-68
2022/01/25 07:17:32;;;;;;;144.63;59.05;;;;;;;16.34;100.00;98872.47;4785001;29;20055;-68
2022/01/25 07:20:22;;;;;;;142.02;59.22;;;;;;;16.26;100.00;98865.03;4779409;29;20055;-67
2022/01/25 07:23:04;;;;;;;145.20;61.38;;;;;;;15.65;100.00;98862.81;4777637;29;20059;-67
2022/01/25 07:25:53;;;;;;;142.80;60.72;;;;;;;15.91;100.00;98853.78;4775067;29;20055;-66
2022/01/25 07:28:36;;;;;;;133.57;55.80;;;;;;;16.06;100.00;98846.97;4782697;29;20058;-67
2022/01/25 07:31:24;;;;;;;137.50;56.47;;;;;;;16.11;100.00;98839.81;4783010;29;20633;-69
2022/01/25 07:34:11;;;;;;;147.63;61.25;;;;;;;16.39;100.00;98847.91;4780451;29;20055;-68
2022/01/25 07:37:00;;;;;;;149.23;61.22;;;;;;;16.37;100.00;98844.53;4778375;29;20838;-69
2022/01/25 07:39:52;;;;;;;130.80;54.22;;;;;;;16.21;100.00;98845.38;4772839;29;20066;-68
2022/01/25 07:42:51;;;;;;;131.80;54.08;;;;;;;16.18;100.00;98833.38;4779011;29;20484;-68
2022/01/25 07:45:52;;;;;;;124.70;51.95;;;;;;;16.10;100.00;98835.53;4778801;29;20146;-67
2022/01/25 07:48:42;;;;;;;131.90;51.97;;;;;;;16.22;100.00;98828.88;4778120;29;20063;-69
2022/01/25 07:51:32;;;;;;;112.60;49.70;;;;;;;16.23;100.00;98822.75;4765838;29;20050;-68
2022/01/25 07:54:20;;;;;;;121.57;50.85;;;;;;;16.12;100.00;98810.31;4782728;29;20127;-68
2022/01/25 07:57:01;;;;;;;112.80;50.15;;;;;;;16.10;100.00;98819.09;4779320;29;20051;-68
2022/01/25 07:59:49;;;;;;;106.18;48.60;;;;;;;16.15;100.00;98810.13;4762850;29;20055;-67
2022/01/25 08:02:47;;;;;;;111.13;49.28;;;;;;;16.15;100.00;98806.69;4775717;29;20563;-68
2022/01/25 08:05:44;;;;;;;128.35;52.72;;;;;;;15.89;100.00;98803.63;4774850;29;20059;-66
2022/01/25 08:08:52;;;;;;;127.82;50.55;;;;;;;16.10;100.00;98799.16;4762983;29;20146;-67
2022/01/25 08:11:54;;;;;;;132.80;53.30;;;;;;;16.38;100.00;98791.59;4775152;29;20586;-65
2022/01/25 08:15:13;;;;;;;146.32;57.17;;;;;;;16.30;100.00;98783.34;4765021;29;20465;-65
2022/01/25 08:18:10;;;;;;;153.35;59.40;;;;;;;16.29;100.00;98781.69;4773673;29;20090;-69
2022/01/25 08:21:06;;;;;;;138.80;56.55;;;;;;;16.20;100.00;98776.97;4775176;29;20055;-69
2022/01/25 08:23:53;;;;;;;139.88;56.95;;;;;;;16.09;100.00;98768.88;4776451;29;20094;-68
2022/01/25 08:27:01;;;;;;;129.77;54.65;;;;;;;16.09;100.00;98758.47;4755588;29;20051;-68
2022/01/25 08:29:47;;;;;;;148.00;54.83;;;;;;;16.06;100.00;98762.06;4775909;29;20146;-68
2022/01/25 08:32:51;;;;;;;135.52;53.33;;;;;;;16.24;100.00;98756.84;4738455;30;20064;-67
2022/01/25 08:35:55;;;;;;;137.18;54.20;;;;;;;16.24;100.00;98749.88;4737930;30;20060;-67
2022/01/25 08:38:49;;;;;;;128.25;54.10;;;;;;;16.13;100.00;98744.38;4738900;30;20125;-65
2022/01/25 08:41:47;;;;;;;136.73;54.92;;;;;;;16.04;100.00;98735.31;4735849;30;20059;-67
2022/01/25 08:44:39;;;;;;;127.13;53.35;;;;;;;15.95;100.00;98740.16;4738456;30;20067;-66
2022/01/25 08:47:30;;;;;;;132.77;56.03;;;;;;;15.85;100.00;98733.75;4737284;30;20059;-65
2022/01/25 08:50:40;;;;;;;130.57;53.75;;;;;;;15.96;100.00;98734.03;4737835;30;20128;-69
2022/01/25 08:53:52;;;;;;;127.70;51.55;;;;;;;15.94;100.00;98731.53;4684899;30;20054;-67
2022/01/25 08:56:41;;;;;;;129.05;52.58;;;;;;;15.91;100.00;98728.22;4732956;30;20060;-67
2022/01/25 08:59:48;;;;;;;129.38;55.50;;;;;;;15.84;100.00;98732.06;4753117;30;20495;-67
2022/01/25 09:02:31;;;;;;;120.35;53.33;;;;;;;15.92;100.00;98729.91;4741789;29;20062;-64
2022/01/25 09:05:20;;;;;;;123.78;50.90;;;;;;;15.89;100.00;98730.06;4776564;29;20055;-68
2022/01/25 09:08:02;;;;;;;117.45;52.28;;;;;;;16.05;100.00;98720.56;4776612;29;20348;-67
2022/01/25 09:10:58;;;;;;;123.22;51.95;;;;;;;15.79;100.00;98724.50;4765101;29;20051;-65
2022/01/25 09:13:47;;;;;;;125.10;50.20;;;;;;;15.86;100.00;98717.25;4783717;29;20054;-68
2022/01/25 09:16:28;;;;;;;131.98;50.85;;;;;;;15.69;100.00;98721.53;4773942;29;20058;-69
2022/01/25 09:19:13;;;;;;;113.50;51.65;;;;;;;15.65;100.00;98719.13;4761690;29;20107;-68
2022/01/25 09:22:03;;;;;;;127.47;51.10;;;;;;;15.49;100.00;98725.97;4782771;29;20138;-68
2022/01/25 09:24:45;;;;;;;119.72;49.13;;;;;;;15.67;100.00;98728.53;4780595;29;20224;-67
2022/01/25 09:27:35;;;;;;;122.55;51.05;;;;;;;15.64;100.00;98726.09;4766378;29;20138;-67
2022/01/25 09:30:18;;;;;;;132.23;54.67;;;;;;;15.41;100.00;98715.97;4781758;29;20050;-67
2022/01/25 09:33:08;;;;;;;126.55;50.60;;;;;;;15.48;100.00;98714.78;4774096;29;20514;-68
2022/01/25 09:35:52;;;;;;;121.68;51.13;;;;;;;15.43;100.00;98718.50;4776531;29;20142;-69
2022/01/25 09:38:41;;;;;;;116.60;47.10;;;;;;;15.39;100.00;98720.41;4779381;29;20058;-68
2022/01/25 09:41:24;;;;;;;115.32;47.47;;;;;;;15.21;100.00;98713.50;4777539;29;20138;-67
2022/01/25 09:44:15;;;;;;;108.05;46.00;;;;;;;15.23;100.00;98703.91;4764071;30;20054;-68
2022/01/25 09:46:57;;;;;;;128.45;50.05;;;;;;;15.24;100.00;98711.59;4767212;30;20095;-69
2022/01/25 09:49:53;;;;;;;120.18;47.95;;;;;;;15.20;100.00;98710.06;4779885;29;20167;-69
2022/01/25 09:52:52;;;;;;;110.75;46.35;;;;;;;15.18;100.00;98708.47;4739786;29;20055;-67
2022/01/25 09:55:31;;;;;;;93.55;43.72;;;;;;;15.13;100.00;98702.66;4779849;29;20058;-68
2022/01/25 09:58:26;;;;;;;90.97;42.45;;;;;;;15.19;100.00;98697.16;4776470;29;20154;-68
2022/01/25 10:01:02;;;;;;;81.20;40.15;;;;;;;15.37;100.00;98696.28;4774010;29;20209;-67
2022/01/25 10:03:59;;;;;;;78.55;38.17;;;;;;;15.21;100.00;98695.34;4761619;29;20094;-69
2022/01/25 10:06:34;;;;;;;81.35;38.92;;;;;;;15.08;100.00;98686.47;4778861;29;20135;-68
2022/01/25 10:09:25;;;;;;;84.05;37.60;;;;;;;14.86;100.00;98689.25;4778613;29;20151;-67
2022/01/25 10:12:29;;;;;;;72.25;36.70;;;;;;;14.98;100.00;98693.88;4779771;29;20052;-68
2022/01/25 10:15:18;;;;;;;79.55;36.38;;;;;;;14.97;100.00;98691.34;4779582;29;20055;-68
2022/01/25 10:18:21;;;;;;;68.40;34.35;;;;;;;14.78;100.00;98686.16;4778551;29;20058;-68
2022/01/25 10:21:02;;;;;;;75.35;35.47;;;;;;;14.75;100.00;98687.16;4776980;29;20059;-67
2022/01/25 10:24:13;;;;;;;80.60;34.65;;;;;;;14.70;100.00;98675.31;4781752;29;20137;-68
2022/01/25 10:27:10;;;;;;;74.90;33.88;;;;;;;14.77;100.00;98679.28;4772954;29;20108;-69
2022/01/25 10:29:52;;;;;;;66.80;34.58;;;;;;;14.66;100.00;98682.41;4778007;29;20078;-69
2022/01/25 10:32:41;;;;;;;67.45;32.70;;;;;;;14.65;100.00;98685.91;4778127;29;20061;-68
2022/01/25 10:35:23;;;;;;;74.47;32.67;;;;;;;14.67;100.00;98686.69;4780766;29;20055;-70
2022/01/25 10:38:25;;;;;;;71.32;33.55;;;;;;;14.75;100.00;98692.34;4780258;29;20051;-69
2022/01/25 10:41:10;;;;;;;64.90;32.95;;;;;;;14.77;100.00;98690.50;4775647;29;20063;-69
2022/01/25 10:43:59;;;;;;;76.32;33.42;;;;;;;14.76;100.00;98694.03;4773790;29;20055;-69
2022/01/25 10:46:41;;;;;;;72.72;33.20;;;;;;;14.80;100.00;98698.16;4772880;29;20103;-69
2022/01/25 10:49:29;;;;;;;74.28;34.03;;;;;;;14.76;100.00;98693.19;4776881;29;20055;-69
2022/01/25 10:52:26;;;;;;;71.30;34.08;;;;;;;14.82;100.00;98698.09;4770561;29;20055;-69
2022/01/25 10:55:17;;;;;;;75.65;34.15;;;;;;;14.67;100.00;98704.00;4770010;29;20050;-68
2022/01/25 10:58:03;;;;;;;72.88;33.38;;;;;;;14.63;100.00;98695.50;4788954;29;20047;-69
2022/01/25 11:00:52;;;;;;;79.05;34.33;;;;;;;14.77;100.00;98695.69;4761623;29;20076;-68
2022/01/25 11:03:49;;;;;;;76.22;34.75;;;;;;;14.64;100.00;98691.16;4770069;29;20147;-68
2022/01/25 11:06:31;;;;;;;79.55;33.10;;;;;;;14.66;100.00;98697.97;4767108;29;20055;-69
2022/01/25 11:09:23;;;;;;;76.10;33.85;;;;;;;14.59;100.00;98693.97;4778957;29;20102;-69
2022/01/25 11:12:05;;;;;;;85.57;33.45;;;;;;;14.44;100.00;98686.91;4779971;29;20091;-68
2022/01/25 11:14:54;;;;;;;72.03;33.78;;;;;;;14.42;100.00;98684.38;4777343;29;20566;-68
2022/01/25 11:17:40;;;;;;;81.18;35.42;;;;;;;14.40;100.00;98681.00;4770592;29;20483;-68
2022/01/25 11:20:28;;;;;;;73.32;35.50;;;;;;;14.47;100.00;98682.41;4773849;29;21248;-68
2022/01/25 11:23:10;;;;;;;74.30;33.88;;;;;;;14.48;100.00;98684.09;4755771;29;20047;-67
2022/01/25 11:26:01;;;;;;;72.55;34.03;;;;;;;14.49;100.00;98682.34;4773811;29;20062;-67
2022/01/25 11:28:45;;;;;;;75.65;33.03;;;;;;;14.39;100.00;98681.06;4775817;29;20066;-68
2022/01/25 11:31:35;;;;;;;75.88;33.63;;;;;;;14.27;100.00;98679.00;4777829;29;20146;-68
2022/01/25 11:34:22;;;;;;;72.43;33.15;;;;;;;14.31;100.00;98680.53;4776718;29;20140;-68
2022/01/25 11:37:12;;;;;;;79.80;33.77;;;;;;;14.37;100.00;98677.66;4775002;29;20063;-68
2022/01/25 11:40:08;;;;;;;66.95;33.13;;;;;;;14.43;100.00;98680.88;4773607;29;20051;-68
2022/01/25 11:42:55;;;;;;;80.75;33.70;;;;;;;14.24;100.00;98671.38;4770078;29;20105;-64
2022/01/25 11:45:55;;;;;;;73.72;34.38;;;;;;;14.30;100.00;98671.94;4757741;29;20043;-64
2022/01/25 11:48:44;;;;;;;78.75;33.22;;;;;;;14.36;100.00;98668.25;4740589;30;20075;-64
2022/01/25 11:51:40;;;;;;;79.38;35.28;;;;;;;14.27;100.00;98668.66;4726485;30;20047;-64
2022/01/25 11:54:15;;;;;;;74.22;33.95;;;;;;;14.24;100.00;98673.97;4769011;29;20055;-64
2022/01/25 11:57:27;;;;;;;85.90;35.05;;;;;;;14.12;100.00;98680.53;4779705;29;20043;-65
2022/01/25 12:00:03;;;;;;;73.57;34.05;;;;;;;13.99;100.00;98680.22;4762107;29;20054;-65
2022/01/25 12:03:01;;;;;;;73.75;35.40;;;;;;;13.97;100.00;98676.00;4775963;29;20059;-65
2022/01/25 12:06:05;;;;;;;90.82;37.22;;;;;;;14.01;100.00;98682.75;4748732;30;20063;-65
2022/01/25 12:12:01;;;;;;;79.97;36.25;;;;;;;13.75;100.00;98678.69;4754205;29;20116;-66
2022/01/25 12:14:55;;;;;;;88.10;38.60;;;;;;;13.96;100.00;98688.16;4791345;29;20569;-64
2022/01/25 12:17:41;;;;;;;101.50;40.15;;;;;;;13.91;100.00;98690.06;4760845;30;20120;-65
2022/01/25 12:20:31;;;;;;;84.47;37.33;;;;;;;13.76;100.00;98698.50;4786836;29;20487;-64
2022/01/25 12:23:20;;;;;;;91.82;39.63;;;;;;;13.61;100.00;98691.38;4761149;29;20054;-65
2022/01/25 12:26:18;;;;;;;94.35;38.35;;;;;;;13.66;100.00;98689.44;4786859;29;20051;-66
2022/01/25 12:29:29;;;;;;;93.35;38.70;;;;;;;13.50;100.00;98686.66;4778369;29;20059;-66
2022/01/25 12:32:21;;;;;;;89.15;41.53;;;;;;;13.57;100.00;98693.25;4778780;29;20059;-66
2022/01/25 12:35:21;;;;;;;91.70;40.25;;;;;;;13.36;100.00;98697.59;4771973;29;20415;-64
2022/01/25 12:38:12;;;;;;;91.07;41.63;;;;;;;13.26;100.00;98693.69;4777478;29;20059;-65
2022/01/25 12:40:56;;;;;;;99.15;41.50;;;;;;;13.31;100.00;98696.94;4782583;29;20059;-65
2022/01/25 12:43:44;;;;;;;89.93;41.78;;;;;;;13.22;100.00;98696.47;4755039;30;20126;-65
2022/01/25 12:46:43;;;;;;;95.25;39.97;;;;;;;13.10;100.00;98702.09;4767527;30;20055;-65
2022/01/25 12:49:27;;;;;;;97.65;42.67;;;;;;;13.07;100.00;98713.41;4776698;29;20479;-65
2022/01/25 12:52:17;;;;;;;109.63;46.20;;;;;;;12.90;100.00;98718.41;4768871;30;20083;-65
2022/01/25 12:54:59;;;;;;;119.30;48.13;;;;;;;12.94;100.00;98723.38;4767967;30;20056;-66
2022/01/25 12:57:56;;;;;;;119.38;48.38;;;;;;;12.97;100.00;98725.00;4777194;29;20055;-64
2022/01/25 13:00:44;;;;;;;105.07;49.00;;;;;;;12.90;100.00;98734.75;4777085;29;20074;-65
2022/01/25 13:03:36;;;;;;;119.00;48.63;;;;;;;12.91;100.00;98735.59;4777115;29;20376;-64
2022/01/25 13:06:21;;;;;;;113.05;47.38;;;;;;;12.79;100.00;98739.47;4775722;29;20055;-65
2022/01/25 13:09:33;;;;;;;106.97;45.58;;;;;;;12.75;100.00;98740.50;4774995;30;20059;-64
2022/01/25 13:12:33;;;;;;;103.35;46.05;;;;;;;12.74;100.00;98748.31;4780029;29;20066;-64
2022/01/25 13:15:27;;;;;;;124.97;50.20;;;;;;;12.58;100.00;98746.31;4777475;29;20087;-66
2022/01/25 13:18:10;;;;;;;119.38;48.97;;;;;;;12.67;100.00;98754.63;4774612;30;20047;-66
2022/01/25 13:21:10;;;;;;;112.65;48.15;;;;;;;12.63;100.00;98746.97;4782477;29;20512;-66
2022/01/25 13:23:58;;;;;;;130.15;48.72;;;;;;;12.68;100.00;98751.16;4782162;29;20508;-66
2022/01/25 13:26:55;;;;;;;122.90;48.10;;;;;;;12.53;100.00;98757.72;4748400;30;20570;-65
2022/01/25 13:32:51;;;;;;;119.00;48.53;;;;;;;12.56;100.00;98758.44;4778699;30;20345;-65
2022/01/25 13:35:47;;;;;;;120.95;50.63;;;;;;;12.46;100.00;98759.66;4772820;30;20055;-67
2022/01/25 13:38:34;;;;;;;122.95;52.13;;;;;;;12.40;100.00;98767.66;4781108;29;20062;-65
2022/01/25 13:41:41;;;;;;;125.22;51.10;;;;;;;12.40;100.00;98762.47;4779074;29;20592;-66
2022/01/25 13:47:32;;;;;;;131.50;57.28;;;;;;;12.40;100.00;98771.97;4778393;30;20135;-67
2022/01/25 13:50:13;;;;;;;132.50;56.70;;;;;;;12.26;100.00;98775.91;4765560;30;20094;-69
2022/01/25 13:53:03;;;;;;;141.30;57.03;;;;;;;12.32;100.00;98769.66;4780230;30;20131;-66
2022/01/25 13:55:49;;;;;;;150.23;59.00;;;;;;;12.33;100.00;98779.09;4766516;30;20047;-67
2022/01/25 13:58:44;;;;;;;155.52;66.72;;;;;;;12.37;100.00;98772.91;4766658;30;20055;-68
2022/01/25 14:01:27;;;;;;;152.63;68.38;;;;;;;12.41;100.00;98773.66;4773971;30;20055;-68
2022/01/25 14:04:17;;;;;;;164.13;71.13;;;;;;;12.38;100.00;98779.75;4761771;29;20201;-68
2022/01/25 14:07:10;;;;;;;165.07;68.95;;;;;;;12.33;100.00;98781.69;4778378;30;20439;-67
2022/01/25 14:09:54;;;;;;;151.75;69.97;;;;;;;12.29;100.00;98785.28;4779224;29;20043;-67
2022/01/25 14:25:06;;;;;;;192.05;81.75;;;;;;;11.95;100.00;98795.06;4780219;29;20059;-68
2022/01/25 14:27:55;;;;;;;180.75;83.57;;;;;;;11.85;100.00;98794.53;4764307;30;20086;-67
2022/01/25 14:30:47;;;;;;;197.20;91.43;;;;;;;11.85;100.00;98805.72;4774616;29;20102;-68
2022/01/25 14:33:33;;;;;;;202.32;93.47;;;;;;;11.82;100.00;98813.53;4753226;30;20136;-67
2022/01/25 14:36:23;;;;;;;185.60;91.65;;;;;;;11.88;100.00;98815.94;4761776;30;20506;-68
2022/01/25 14:39:13;;;;;;;187.35;88.85;;;;;;;11.84;100.00;98821.25;4773320;29;20484;-67
2022/01/25 14:41:56;;;;;;;174.95;89.38;;;;;;;11.94;100.00;98824.38;4777923;30;20142;-68
2022/01/25 14:44:48;;;;;;;181.95;86.30;;;;;;;11.86;100.00;98833.22;4778036;30;20059;-68
2022/01/25 14:47:36;;;;;;;171.98;82.43;;;;;;;11.79;100.00;98838.63;4777565;30;20476;-70
2022/01/25 14:50:34;;;;;;;178.15;81.65;;;;;;;11.79;100.00;98836.88;4777590;29;20059;-70